sensor_id;sensor_type;location;lat;lon;timestamp;P1;durP1;ratioP1;P2;durP2;ratioP2
3185;SDS011;1604;53.700;10.252;2024-03-23T00:55:12;27.33;;;5.30;;
3185;SDS011;1604;53.700;10.252;2024-03-23T00:58:14;34.93;;;5.90;;
3185;SDS011;1604;53.700;10.252;2024-03-23T01:01:15;32.40;;;6.33;;
3185;SDS011;1604;53.700;10.252;2024-03-23T01:04:17;37.13;;;7.27;;
3185;SDS011;1604;53.700;10.252;2024-03-23T01:07:18;27.80;;;5.23;;
3185;SDS011;1604;53.700;10.252;2024-03-23T01:10:21;27.63;;;5.63;;
3185;SDS011;1604;53.700;10.252;2024-03-23T01:13:22;21.30;;;5.00;;
3185;SDS011;1604;53.700;10.252;2024-03-23T01:16:24;35.80;;;5.10;;
3185;SDS011;1604;53.700;10.252;2024-03-23T01:19:25;32.60;;;5.30;;
3185;SDS011;1604;53.700;10.252;2024-03-23T01:22:27;17.13;;;4.83;;
3185;SDS011;1604;53.700;10.252;2024-03-23T01:25:29;32.03;;;6.73;;
3185;SDS011;1604;53.700;10.252;2024-03-23T01:28:31;30.57;;;5.40;;
3185;SDS011;1604;53.700;10.252;2024-03-23T01:31:32;32.47;;;5.77;;
3185;SDS011;1604;53.700;10.252;2024-03-23T01:34:34;25.80;;;5.40;;
3185;SDS011;1604;53.700;10.252;2024-03-23T01:37:35;28.70;;;6.10;;
3185;SDS011;1604;53.700;10.252;2024-03-23T01:40:38;16.10;;;5.20;;
3185;SDS011;1604;53.700;10.252;2024-03-23T01:43:40;31.73;;;5.90;;
3185;SDS011;1604;53.700;10.252;2024-03-23T01:46:41;31.93;;;4.93;;
3185;SDS011;1604;53.700;10.252;2024-03-23T01:49:43;35.87;;;5.77;;
3185;SDS011;1604;53.700;10.252;2024-03-23T01:52:44;39.60;;;7.30;;
3185;SDS011;1604;53.700;10.252;2024-03-23T01:55:48;24.27;;;5.20;;
3185;SDS011;1604;53.700;10.252;2024-03-23T01:58:51;17.87;;;4.60;;
3185;SDS011;1604;53.700;10.252;2024-03-23T02:01:52;32.03;;;5.47;;
3185;SDS011;1604;53.700;10.252;2024-03-23T02:04:54;18.33;;;5.03;;
3185;SDS011;1604;53.700;10.252;2024-03-23T02:07:55;26.80;;;5.87;;
3185;SDS011;1604;53.700;10.252;2024-03-23T02:10:58;27.00;;;5.83;;
3185;SDS011;1604;53.700;10.252;2024-03-23T02:13:59;24.33;;;4.47;;
3185;SDS011;1604;53.700;10.252;2024-03-23T02:17:02;28.30;;;6.20;;
3185;SDS011;1604;53.700;10.252;2024-03-23T02:20:04;21.00;;;5.43;;
3185;SDS011;1604;53.700;10.252;2024-03-23T02:23:11;32.83;;;6.50;;
3185;SDS011;1604;53.700;10.252;2024-03-23T02:26:14;15.60;;;4.60;;
3185;SDS011;1604;53.700;10.252;2024-03-23T02:29:16;35.30;;;4.90;;
3185;SDS011;1604;53.700;10.252;2024-03-23T02:32:19;28.40;;;5.50;;
3185;SDS011;1604;53.700;10.252;2024-03-23T02:35:21;19.60;;;6.10;;
3185;SDS011;1604;53.700;10.252;2024-03-23T02:38:24;32.10;;;5.70;;
3185;SDS011;1604;53.700;10.252;2024-03-23T02:41:25;27.70;;;8.10;;
3185;SDS011;1604;53.700;10.252;2024-03-23T02:44:26;30.50;;;5.27;;
3185;SDS011;1604;53.700;10.252;2024-03-23T02:47:28;20.57;;;4.70;;
3185;SDS011;1604;53.700;10.252;2024-03-23T02:50:29;38.33;;;6.00;;
3185;SDS011;1604;53.700;10.252;2024-03-23T02:53:32;26.60;;;5.60;;
3185;SDS011;1604;53.700;10.252;2024-03-23T02:56:34;18.27;;;4.17;;
3185;SDS011;1604;53.700;10.252;2024-03-23T02:59:36;33.80;;;6.60;;
3185;SDS011;1604;53.700;10.252;2024-03-23T03:02:36;47.97;;;5.47;;
3185;SDS011;1604;53.700;10.252;2024-03-23T03:05:38;20.03;;;5.20;;
3185;SDS011;1604;53.700;10.252;2024-03-23T03:08:41;32.47;;;6.40;;
3185;SDS011;1604;53.700;10.252;2024-03-23T03:11:43;22.70;;;4.93;;
3185;SDS011;1604;53.700;10.252;2024-03-23T03:14:44;22.33;;;4.30;;
3185;SDS011;1604;53.700;10.252;2024-03-23T03:17:45;23.33;;;6.23;;
3185;SDS011;1604;53.700;10.252;2024-03-23T03:20:49;29.97;;;6.20;;
3185;SDS011;1604;53.700;10.252;2024-03-23T03:23:51;20.63;;;5.70;;
3185;SDS011;1604;53.700;10.252;2024-03-23T03:26:54;39.73;;;6.57;;
3185;SDS011;1604;53.700;10.252;2024-03-23T03:29:57;23.67;;;5.40;;
3185;SDS011;1604;53.700;10.252;2024-03-23T03:32:59;20.60;;;5.40;;
3185;SDS011;1604;53.700;10.252;2024-03-23T03:36:01;24.70;;;6.10;;
3185;SDS011;1604;53.700;10.252;2024-03-23T03:39:04;34.73;;;6.50;;
3185;SDS011;1604;53.700;10.252;2024-03-23T03:42:07;16.43;;;4.80;;
3185;SDS011;1604;53.700;10.252;2024-03-23T03:45:08;26.40;;;6.30;;
3185;SDS011;1604;53.700;10.252;2024-03-23T03:48:09;23.47;;;4.40;;
3185;SDS011;1604;53.700;10.252;2024-03-23T03:51:11;23.60;;;5.57;;
3185;SDS011;1604;53.700;10.252;2024-03-23T03:54:14;23.27;;;5.90;;
3185;SDS011;1604;53.700;10.252;2024-03-23T03:57:16;25.43;;;6.07;;
3185;SDS011;1604;53.700;10.252;2024-03-23T04:00:18;40.87;;;6.30;;
3185;SDS011;1604;53.700;10.252;2024-03-23T04:03:19;30.90;;;5.60;;
3185;SDS011;1604;53.700;10.252;2024-03-23T04:06:21;21.30;;;5.10;;
3185;SDS011;1604;53.700;10.252;2024-03-23T04:09:23;20.60;;;6.30;;
3185;SDS011;1604;53.700;10.252;2024-03-23T04:12:25;25.57;;;5.40;;
3185;SDS011;1604;53.700;10.252;2024-03-23T04:15:26;32.53;;;4.93;;
3185;SDS011;1604;53.700;10.252;2024-03-23T04:18:28;34.00;;;4.93;;
3185;SDS011;1604;53.700;10.252;2024-03-23T04:21:30;30.53;;;5.10;;
3185;SDS011;1604;53.700;10.252;2024-03-23T04:24:33;19.97;;;6.30;;
3185;SDS011;1604;53.700;10.252;2024-03-23T04:27:34;28.40;;;5.10;;
3185;SDS011;1604;53.700;10.252;2024-03-23T04:30:36;38.07;;;5.20;;
3185;SDS011;1604;53.700;10.252;2024-03-23T04:33:37;32.13;;;5.57;;
3185;SDS011;1604;53.700;10.252;2024-03-23T04:36:39;26.03;;;4.40;;
3185;SDS011;1604;53.700;10.252;2024-03-23T04:39:41;44.63;;;5.97;;
3185;SDS011;1604;53.700;10.252;2024-03-23T04:42:43;19.63;;;4.90;;
3185;SDS011;1604;53.700;10.252;2024-03-23T04:45:46;20.63;;;6.70;;
3185;SDS011;1604;53.700;10.252;2024-03-23T04:48:47;36.13;;;6.67;;
3185;SDS011;1604;53.700;10.252;2024-03-23T04:51:49;23.47;;;5.07;;
3185;SDS011;1604;53.700;10.252;2024-03-23T04:54:53;31.03;;;5.23;;
3185;SDS011;1604;53.700;10.252;2024-03-23T04:57:54;21.47;;;5.00;;
3185;SDS011;1604;53.700;10.252;2024-03-23T05:00:56;22.47;;;4.37;;
3185;SDS011;1604;53.700;10.252;2024-03-23T05:03:57;28.37;;;5.47;;
3185;SDS011;1604;53.700;10.252;2024-03-23T05:06:59;22.53;;;5.23;;
3185;SDS011;1604;53.700;10.252;2024-03-23T05:10:02;19.00;;;4.70;;
3185;SDS011;1604;53.700;10.252;2024-03-23T05:13:04;23.80;;;6.17;;
3185;SDS011;1604;53.700;10.252;2024-03-23T05:16:05;19.97;;;5.80;;
3185;SDS011;1604;53.700;10.252;2024-03-23T05:19:08;21.27;;;5.87;;
3185;SDS011;1604;53.700;10.252;2024-03-23T05:22:08;27.40;;;5.93;;
3185;SDS011;1604;53.700;10.252;2024-03-23T05:25:12;25.83;;;4.33;;
3185;SDS011;1604;53.700;10.252;2024-03-23T05:28:13;26.20;;;4.80;;
3185;SDS011;1604;53.700;10.252;2024-03-23T05:31:22;23.67;;;5.93;;
3185;SDS011;1604;53.700;10.252;2024-03-23T05:34:24;39.20;;;6.03;;
3185;SDS011;1604;53.700;10.252;2024-03-23T05:37:26;26.53;;;4.87;;
3185;SDS011;1604;53.700;10.252;2024-03-23T05:40:29;28.60;;;4.63;;
3185;SDS011;1604;53.700;10.252;2024-03-23T05:43:31;18.10;;;4.30;;
3185;SDS011;1604;53.700;10.252;2024-03-23T05:46:33;25.20;;;4.80;;
3185;SDS011;1604;53.700;10.252;2024-03-23T05:49:34;28.30;;;6.13;;
3185;SDS011;1604;53.700;10.252;2024-03-23T05:52:36;25.47;;;6.00;;
3185;SDS011;1604;53.700;10.252;2024-03-23T05:55:38;30.73;;;6.90;;
3185;SDS011;1604;53.700;10.252;2024-03-23T05:58:40;24.50;;;5.20;;
3185;SDS011;1604;53.700;10.252;2024-03-23T06:01:42;42.27;;;6.00;;
3185;SDS011;1604;53.700;10.252;2024-03-23T06:04:45;20.93;;;4.63;;
3185;SDS011;1604;53.700;10.252;2024-03-23T06:07:46;37.97;;;6.43;;
3185;SDS011;1604;53.700;10.252;2024-03-23T06:10:49;34.20;;;5.27;;
3185;SDS011;1604;53.700;10.252;2024-03-23T06:13:51;31.73;;;5.30;;
3185;SDS011;1604;53.700;10.252;2024-03-23T06:16:52;38.37;;;7.00;;
3185;SDS011;1604;53.700;10.252;2024-03-23T06:19:54;26.27;;;6.50;;
3185;SDS011;1604;53.700;10.252;2024-03-23T06:22:55;32.30;;;6.53;;
3185;SDS011;1604;53.700;10.252;2024-03-23T06:25:58;18.03;;;3.80;;
3185;SDS011;1604;53.700;10.252;2024-03-23T06:28:59;20.00;;;6.53;;
3185;SDS011;1604;53.700;10.252;2024-03-23T06:32:01;30.10;;;6.17;;
3185;SDS011;1604;53.700;10.252;2024-03-23T06:35:02;29.50;;;5.87;;
3185;SDS011;1604;53.700;10.252;2024-03-23T06:38:08;20.73;;;5.50;;
3185;SDS011;1604;53.700;10.252;2024-03-23T06:41:10;26.03;;;5.90;;
3185;SDS011;1604;53.700;10.252;2024-03-23T06:44:12;40.43;;;6.77;;
3185;SDS011;1604;53.700;10.252;2024-03-23T06:47:13;35.53;;;5.40;;
3185;SDS011;1604;53.700;10.252;2024-03-23T06:50:15;19.90;;;4.60;;
3185;SDS011;1604;53.700;10.252;2024-03-23T06:53:16;41.33;;;5.70;;
3185;SDS011;1604;53.700;10.252;2024-03-23T06:56:19;23.60;;;5.53;;
3185;SDS011;1604;53.700;10.252;2024-03-23T06:59:21;40.40;;;5.87;;
3185;SDS011;1604;53.700;10.252;2024-03-23T07:02:23;27.17;;;5.87;;
3185;SDS011;1604;53.700;10.252;2024-03-23T07:05:24;22.57;;;7.90;;
3185;SDS011;1604;53.700;10.252;2024-03-23T07:08:26;40.57;;;7.10;;
3185;SDS011;1604;53.700;10.252;2024-03-23T07:11:28;26.43;;;7.03;;
3185;SDS011;1604;53.700;10.252;2024-03-23T07:14:30;24.47;;;5.10;;
3185;SDS011;1604;53.700;10.252;2024-03-23T07:17:32;31.17;;;5.70;;
3185;SDS011;1604;53.700;10.252;2024-03-23T07:20:35;25.03;;;6.20;;
3185;SDS011;1604;53.700;10.252;2024-03-23T07:23:37;18.10;;;4.50;;
3185;SDS011;1604;53.700;10.252;2024-03-23T07:26:43;24.10;;;5.60;;
3185;SDS011;1604;53.700;10.252;2024-03-23T07:29:45;16.63;;;5.47;;
3185;SDS011;1604;53.700;10.252;2024-03-23T07:32:46;38.07;;;6.37;;
3185;SDS011;1604;53.700;10.252;2024-03-23T07:35:47;18.93;;;4.60;;
3185;SDS011;1604;53.700;10.252;2024-03-23T07:38:50;24.50;;;4.90;;
3185;SDS011;1604;53.700;10.252;2024-03-23T07:41:53;24.67;;;5.17;;
3185;SDS011;1604;53.700;10.252;2024-03-23T07:44:54;23.77;;;5.10;;
3185;SDS011;1604;53.700;10.252;2024-03-23T07:47:57;26.73;;;5.33;;
3185;SDS011;1604;53.700;10.252;2024-03-23T07:50:58;13.07;;;4.57;;
3185;SDS011;1604;53.700;10.252;2024-03-23T07:54:00;22.43;;;4.50;;
3185;SDS011;1604;53.700;10.252;2024-03-23T07:57:03;28.97;;;5.93;;
3185;SDS011;1604;53.700;10.252;2024-03-23T08:00:06;17.87;;;4.60;;
3185;SDS011;1604;53.700;10.252;2024-03-23T08:03:08;30.10;;;6.33;;
3185;SDS011;1604;53.700;10.252;2024-03-23T08:06:10;18.03;;;4.07;;
3185;SDS011;1604;53.700;10.252;2024-03-23T08:09:13;15.23;;;4.90;;
3185;SDS011;1604;53.700;10.252;2024-03-23T08:12:16;20.10;;;4.30;;
3185;SDS011;1604;53.700;10.252;2024-03-23T08:15:17;14.90;;;5.37;;
3185;SDS011;1604;53.700;10.252;2024-03-23T08:18:19;23.47;;;4.77;;
3185;SDS011;1604;53.700;10.252;2024-03-23T08:21:21;26.67;;;4.80;;
3185;SDS011;1604;53.700;10.252;2024-03-23T08:24:23;13.40;;;3.60;;
3185;SDS011;1604;53.700;10.252;2024-03-23T08:27:27;11.17;;;4.47;;
3185;SDS011;1604;53.700;10.252;2024-03-23T08:30:28;17.57;;;3.77;;
3185;SDS011;1604;53.700;10.252;2024-03-23T08:33:30;15.80;;;3.87;;
3185;SDS011;1604;53.700;10.252;2024-03-23T08:36:31;11.37;;;5.10;;
3185;SDS011;1604;53.700;10.252;2024-03-23T08:39:33;10.63;;;3.90;;
3185;SDS011;1604;53.700;10.252;2024-03-23T08:42:35;7.20;;;3.67;;
3185;SDS011;1604;53.700;10.252;2024-03-23T08:45:39;20.53;;;4.87;;
3185;SDS011;1604;53.700;10.252;2024-03-23T08:48:41;21.17;;;5.03;;
3185;SDS011;1604;53.700;10.252;2024-03-23T08:51:43;20.90;;;6.13;;
3185;SDS011;1604;53.700;10.252;2024-03-23T08:54:45;33.77;;;5.93;;
3185;SDS011;1604;53.700;10.252;2024-03-23T08:57:48;27.97;;;4.53;;
3185;SDS011;1604;53.700;10.252;2024-03-23T09:00:50;15.90;;;5.70;;
3185;SDS011;1604;53.700;10.252;2024-03-23T09:03:51;26.33;;;3.90;;
3185;SDS011;1604;53.700;10.252;2024-03-23T09:06:53;19.90;;;4.27;;
3185;SDS011;1604;53.700;10.252;2024-03-23T09:09:54;18.13;;;3.90;;
3185;SDS011;1604;53.700;10.252;2024-03-23T09:12:57;14.43;;;3.20;;
3185;SDS011;1604;53.700;10.252;2024-03-23T09:15:58;19.90;;;3.37;;
3185;SDS011;1604;53.700;10.252;2024-03-23T09:19:00;15.90;;;3.57;;
3185;SDS011;1604;53.700;10.252;2024-03-23T09:22:01;13.33;;;3.40;;
3185;SDS011;1604;53.700;10.252;2024-03-23T09:25:03;16.87;;;4.27;;
3185;SDS011;1604;53.700;10.252;2024-03-23T09:28:07;16.80;;;3.80;;
3185;SDS011;1604;53.700;10.252;2024-03-23T09:31:10;16.60;;;3.00;;
3185;SDS011;1604;53.700;10.252;2024-03-23T09:34:14;18.50;;;4.40;;
3185;SDS011;1604;53.700;10.252;2024-03-23T09:37:16;7.00;;;2.90;;
3185;SDS011;1604;53.700;10.252;2024-03-23T09:40:17;22.77;;;3.30;;
3185;SDS011;1604;53.700;10.252;2024-03-23T09:43:20;8.30;;;2.50;;
3185;SDS011;1604;53.700;10.252;2024-03-23T09:46:21;16.00;;;3.13;;
3185;SDS011;1604;53.700;10.252;2024-03-23T09:49:24;12.50;;;2.20;;
3185;SDS011;1604;53.700;10.252;2024-03-23T09:52:25;11.87;;;2.73;;
3185;SDS011;1604;53.700;10.252;2024-03-23T09:55:27;15.03;;;2.60;;
3185;SDS011;1604;53.700;10.252;2024-03-23T09:58:29;7.03;;;2.80;;
3185;SDS011;1604;53.700;10.252;2024-03-23T10:01:32;9.30;;;2.53;;
3185;SDS011;1604;53.700;10.252;2024-03-23T10:04:37;7.97;;;3.10;;
3185;SDS011;1604;53.700;10.252;2024-03-23T10:07:38;10.07;;;2.70;;
3185;SDS011;1604;53.700;10.252;2024-03-23T10:10:40;4.97;;;1.80;;
3185;SDS011;1604;53.700;10.252;2024-03-23T10:13:42;7.67;;;2.03;;
3185;SDS011;1604;53.700;10.252;2024-03-23T10:16:46;10.63;;;2.20;;
3185;SDS011;1604;53.700;10.252;2024-03-23T10:19:47;14.90;;;3.00;;
3185;SDS011;1604;53.700;10.252;2024-03-23T10:22:50;6.83;;;2.83;;
3185;SDS011;1604;53.700;10.252;2024-03-23T10:25:52;9.33;;;2.80;;
3185;SDS011;1604;53.700;10.252;2024-03-23T10:28:55;11.80;;;2.97;;
3185;SDS011;1604;53.700;10.252;2024-03-23T10:32:09;9.03;;;3.23;;
3185;SDS011;1604;53.700;10.252;2024-03-23T10:35:14;6.27;;;2.20;;
3185;SDS011;1604;53.700;10.252;2024-03-23T10:38:16;13.07;;;2.67;;
3185;SDS011;1604;53.700;10.252;2024-03-23T10:41:18;7.90;;;3.00;;
3185;SDS011;1604;53.700;10.252;2024-03-23T10:44:21;6.43;;;2.67;;
3185;SDS011;1604;53.700;10.252;2024-03-23T10:47:25;3.67;;;1.90;;
3185;SDS011;1604;53.700;10.252;2024-03-23T10:50:26;5.37;;;1.80;;
3185;SDS011;1604;53.700;10.252;2024-03-23T10:53:29;6.60;;;1.90;;
3185;SDS011;1604;53.700;10.252;2024-03-23T10:56:32;7.27;;;1.20;;
3185;SDS011;1604;53.700;10.252;2024-03-23T10:59:38;8.20;;;2.30;;
3185;SDS011;1604;53.700;10.252;2024-03-23T11:02:40;5.70;;;2.00;;
3185;SDS011;1604;53.700;10.252;2024-03-23T11:05:46;7.47;;;2.37;;
3185;SDS011;1604;53.700;10.252;2024-03-23T11:08:47;10.27;;;2.57;;
3185;SDS011;1604;53.700;10.252;2024-03-23T11:11:49;5.83;;;2.03;;
3185;SDS011;1604;53.700;10.252;2024-03-23T11:14:51;5.77;;;2.00;;
3185;SDS011;1604;53.700;10.252;2024-03-23T11:18:04;7.40;;;3.10;;
3185;SDS011;1604;53.700;10.252;2024-03-23T11:21:08;24.60;;;6.87;;
3185;SDS011;1604;53.700;10.252;2024-03-23T11:24:13;23.53;;;9.03;;
3185;SDS011;1604;53.700;10.252;2024-03-23T11:27:15;15.10;;;4.60;;
3185;SDS011;1604;53.700;10.252;2024-03-23T11:30:19;8.63;;;3.47;;
3185;SDS011;1604;53.700;10.252;2024-03-23T11:33:23;6.20;;;1.77;;
3185;SDS011;1604;53.700;10.252;2024-03-23T11:36:25;13.67;;;2.60;;
3185;SDS011;1604;53.700;10.252;2024-03-23T11:39:26;9.03;;;3.80;;
3185;SDS011;1604;53.700;10.252;2024-03-23T11:42:28;13.33;;;7.70;;
3185;SDS011;1604;53.700;10.252;2024-03-23T11:45:33;11.20;;;2.40;;
3185;SDS011;1604;53.700;10.252;2024-03-23T11:48:36;20.17;;;2.30;;
3185;SDS011;1604;53.700;10.252;2024-03-23T11:51:37;4.63;;;1.00;;
3185;SDS011;1604;53.700;10.252;2024-03-23T11:54:39;4.73;;;1.07;;
3185;SDS011;1604;53.700;10.252;2024-03-23T11:57:40;1.47;;;0.70;;
3185;SDS011;1604;53.700;10.252;2024-03-23T12:00:48;1.93;;;0.87;;
3185;SDS011;1604;53.700;10.252;2024-03-23T12:03:52;2.67;;;1.20;;
3185;SDS011;1604;53.700;10.252;2024-03-23T12:10:13;2.90;;;1.00;;
3185;SDS011;1604;53.700;10.252;2024-03-23T12:13:20;2.97;;;1.40;;
3185;SDS011;1604;53.700;10.252;2024-03-23T12:16:24;8.20;;;2.03;;
3185;SDS011;1604;53.700;10.252;2024-03-23T12:19:27;2.40;;;1.57;;
3185;SDS011;1604;53.700;10.252;2024-03-23T12:22:29;2.03;;;0.90;;
3185;SDS011;1604;53.700;10.252;2024-03-23T12:25:30;1.77;;;0.87;;
3185;SDS011;1604;53.700;10.252;2024-03-23T12:28:32;1.83;;;1.33;;
3185;SDS011;1604;53.700;10.252;2024-03-23T12:31:36;3.13;;;1.90;;
3185;SDS011;1604;53.700;10.252;2024-03-23T12:34:37;3.30;;;1.13;;
3185;SDS011;1604;53.700;10.252;2024-03-23T12:37:39;2.33;;;1.33;;
3185;SDS011;1604;53.700;10.252;2024-03-23T12:40:40;6.90;;;1.37;;
3185;SDS011;1604;53.700;10.252;2024-03-23T12:43:42;5.73;;;0.80;;
3185;SDS011;1604;53.700;10.252;2024-03-23T12:46:44;13.17;;;1.53;;
3185;SDS011;1604;53.700;10.252;2024-03-23T12:49:46;1.67;;;1.10;;
3185;SDS011;1604;53.700;10.252;2024-03-23T12:52:49;6.50;;;1.03;;
3185;SDS011;1604;53.700;10.252;2024-03-23T12:55:51;1.80;;;1.57;;
3185;SDS011;1604;53.700;10.252;2024-03-23T12:58:53;6.93;;;1.33;;
3185;SDS011;1604;53.700;10.252;2024-03-23T13:01:57;5.47;;;0.87;;
3185;SDS011;1604;53.700;10.252;2024-03-23T13:04:58;2.30;;;1.00;;
3185;SDS011;1604;53.700;10.252;2024-03-23T13:07:59;2.80;;;0.73;;
3185;SDS011;1604;53.700;10.252;2024-03-23T13:11:01;1.30;;;0.90;;
3185;SDS011;1604;53.700;10.252;2024-03-23T13:14:03;1.50;;;1.00;;
3185;SDS011;1604;53.700;10.252;2024-03-23T13:17:08;2.60;;;1.27;;
3185;SDS011;1604;53.700;10.252;2024-03-23T13:20:09;1.93;;;0.90;;
3185;SDS011;1604;53.700;10.252;2024-03-23T13:23:14;1.77;;;1.23;;
3185;SDS011;1604;53.700;10.252;2024-03-23T13:26:15;3.30;;;1.10;;
3185;SDS011;1604;53.700;10.252;2024-03-23T13:29:17;2.37;;;0.73;;
3185;SDS011;1604;53.700;10.252;2024-03-23T13:32:20;2.43;;;0.90;;
3185;SDS011;1604;53.700;10.252;2024-03-23T13:35:22;1.87;;;0.60;;
3185;SDS011;1604;53.700;10.252;2024-03-23T13:38:23;2.60;;;0.87;;
3185;SDS011;1604;53.700;10.252;2024-03-23T13:41:25;2.73;;;1.27;;
3185;SDS011;1604;53.700;10.252;2024-03-23T13:44:27;4.93;;;1.37;;
3185;SDS011;1604;53.700;10.252;2024-03-23T13:47:30;1.53;;;0.83;;
3185;SDS011;1604;53.700;10.252;2024-03-23T13:50:31;6.63;;;1.77;;
3185;SDS011;1604;53.700;10.252;2024-03-23T13:53:33;2.90;;;1.10;;
3185;SDS011;1604;53.700;10.252;2024-03-23T13:56:34;3.93;;;1.10;;
3185;SDS011;1604;53.700;10.252;2024-03-23T13:59:36;3.20;;;0.90;;
3185;SDS011;1604;53.700;10.252;2024-03-23T14:02:38;3.90;;;1.43;;
3185;SDS011;1604;53.700;10.252;2024-03-23T14:05:41;4.63;;;1.03;;
3185;SDS011;1604;53.700;10.252;2024-03-23T14:08:42;2.63;;;1.23;;
3185;SDS011;1604;53.700;10.252;2024-03-23T14:11:44;4.63;;;2.00;;
3185;SDS011;1604;53.700;10.252;2024-03-23T14:14:44;5.83;;;2.03;;
3185;SDS011;1604;53.700;10.252;2024-03-23T14:17:48;4.00;;;2.30;;
3185;SDS011;1604;53.700;10.252;2024-03-23T14:20:49;7.30;;;2.30;;
3185;SDS011;1604;53.700;10.252;2024-03-23T14:23:52;3.63;;;2.47;;
3185;SDS011;1604;53.700;10.252;2024-03-23T14:26:55;6.40;;;1.70;;
3185;SDS011;1604;53.700;10.252;2024-03-23T14:29:57;2.03;;;1.13;;
3185;SDS011;1604;53.700;10.252;2024-03-23T14:32:59;2.70;;;1.77;;
3185;SDS011;1604;53.700;10.252;2024-03-23T14:36:01;2.50;;;2.00;;
3185;SDS011;1604;53.700;10.252;2024-03-23T14:39:02;4.20;;;1.50;;
3185;SDS011;1604;53.700;10.252;2024-03-23T14:42:04;5.07;;;1.20;;
3185;SDS011;1604;53.700;10.252;2024-03-23T14:45:06;2.97;;;1.33;;
3185;SDS011;1604;53.700;10.252;2024-03-23T14:48:10;8.23;;;1.83;;
3185;SDS011;1604;53.700;10.252;2024-03-23T14:51:11;3.87;;;1.60;;
3185;SDS011;1604;53.700;10.252;2024-03-23T14:54:13;5.90;;;1.70;;
3185;SDS011;1604;53.700;10.252;2024-03-23T14:57:16;4.60;;;2.37;;
3185;SDS011;1604;53.700;10.252;2024-03-23T15:00:19;5.07;;;1.93;;
3185;SDS011;1604;53.700;10.252;2024-03-23T15:03:22;4.83;;;1.87;;
3185;SDS011;1604;53.700;10.252;2024-03-23T15:06:24;9.20;;;3.17;;
3185;SDS011;1604;53.700;10.252;2024-03-23T15:09:25;8.50;;;3.00;;
3185;SDS011;1604;53.700;10.252;2024-03-23T15:12:27;6.80;;;2.70;;
3185;SDS011;1604;53.700;10.252;2024-03-23T15:15:28;8.00;;;2.33;;
3185;SDS011;1604;53.700;10.252;2024-03-23T15:18:31;4.90;;;1.87;;
3185;SDS011;1604;53.700;10.252;2024-03-23T15:21:33;4.60;;;2.50;;
3185;SDS011;1604;53.700;10.252;2024-03-23T15:24:35;2.33;;;1.20;;
3185;SDS011;1604;53.700;10.252;2024-03-23T15:27:37;3.47;;;1.50;;
3185;SDS011;1604;53.700;10.252;2024-03-23T15:30:38;5.00;;;1.50;;
3185;SDS011;1604;53.700;10.252;2024-03-23T15:33:41;6.80;;;1.20;;
3185;SDS011;1604;53.700;10.252;2024-03-23T15:36:42;3.27;;;1.60;;
3185;SDS011;1604;53.700;10.252;2024-03-23T15:39:45;5.87;;;2.00;;
3185;SDS011;1604;53.700;10.252;2024-03-23T15:42:46;6.93;;;1.47;;
3185;SDS011;1604;53.700;10.252;2024-03-23T15:45:53;1.97;;;1.43;;
3185;SDS011;1604;53.700;10.252;2024-03-23T15:48:56;3.53;;;1.30;;
3185;SDS011;1604;53.700;10.252;2024-03-23T15:51:58;8.93;;;1.60;;
3185;SDS011;1604;53.700;10.252;2024-03-23T15:55:00;2.40;;;1.33;;
3185;SDS011;1604;53.700;10.252;2024-03-23T15:58:05;5.60;;;1.00;;
3185;SDS011;1604;53.700;10.252;2024-03-23T16:01:08;5.50;;;1.33;;
3185;SDS011;1604;53.700;10.252;2024-03-23T16:04:12;4.60;;;1.20;;
3185;SDS011;1604;53.700;10.252;2024-03-23T16:07:14;5.50;;;2.13;;
3185;SDS011;1604;53.700;10.252;2024-03-23T16:10:14;3.23;;;1.47;;
3185;SDS011;1604;53.700;10.252;2024-03-23T16:13:16;1.80;;;1.20;;
3185;SDS011;1604;53.700;10.252;2024-03-23T16:16:19;1.40;;;0.70;;
3185;SDS011;1604;53.700;10.252;2024-03-23T16:19:23;2.67;;;1.70;;
3185;SDS011;1604;53.700;10.252;2024-03-23T16:22:25;5.33;;;1.60;;
3185;SDS011;1604;53.700;10.252;2024-03-23T16:25:26;3.20;;;1.37;;
3185;SDS011;1604;53.700;10.252;2024-03-23T16:28:29;7.87;;;2.00;;
3185;SDS011;1604;53.700;10.252;2024-03-23T16:31:31;3.60;;;1.43;;
3185;SDS011;1604;53.700;10.252;2024-03-23T16:34:34;4.93;;;1.57;;
3185;SDS011;1604;53.700;10.252;2024-03-23T16:37:36;1.93;;;1.00;;
3185;SDS011;1604;53.700;10.252;2024-03-23T16:40:38;4.43;;;1.67;;
3185;SDS011;1604;53.700;10.252;2024-03-23T16:43:39;2.13;;;0.90;;
3185;SDS011;1604;53.700;10.252;2024-03-23T16:46:41;2.67;;;1.20;;
3185;SDS011;1604;53.700;10.252;2024-03-23T16:49:45;2.80;;;1.40;;
3185;SDS011;1604;53.700;10.252;2024-03-23T16:52:47;2.90;;;1.00;;
3185;SDS011;1604;53.700;10.252;2024-03-23T16:55:53;1.97;;;0.90;;
3185;SDS011;1604;53.700;10.252;2024-03-23T16:58:55;2.40;;;0.77;;
3185;SDS011;1604;53.700;10.252;2024-03-23T17:01:56;2.70;;;1.27;;
3185;SDS011;1604;53.700;10.252;2024-03-23T17:04:59;3.93;;;1.20;;
3185;SDS011;1604;53.700;10.252;2024-03-23T17:08:01;3.83;;;1.27;;
3185;SDS011;1604;53.700;10.252;2024-03-23T17:11:03;1.60;;;1.03;;
3185;SDS011;1604;53.700;10.252;2024-03-23T17:14:05;7.03;;;1.33;;
3185;SDS011;1604;53.700;10.252;2024-03-23T17:17:08;4.63;;;1.87;;
3185;SDS011;1604;53.700;10.252;2024-03-23T17:20:10;3.00;;;1.60;;
3185;SDS011;1604;53.700;10.252;2024-03-23T17:23:12;6.00;;;1.37;;
3185;SDS011;1604;53.700;10.252;2024-03-23T17:26:13;4.33;;;1.53;;
3185;SDS011;1604;53.700;10.252;2024-03-23T17:29:15;2.23;;;1.10;;
3185;SDS011;1604;53.700;10.252;2024-03-23T17:32:16;1.73;;;1.50;;
3185;SDS011;1604;53.700;10.252;2024-03-23T17:35:20;2.23;;;2.00;;
3185;SDS011;1604;53.700;10.252;2024-03-23T17:38:21;4.70;;;2.13;;
3185;SDS011;1604;53.700;10.252;2024-03-23T17:41:22;7.07;;;2.10;;
3185;SDS011;1604;53.700;10.252;2024-03-23T17:44:25;8.90;;;2.20;;
3185;SDS011;1604;53.700;10.252;2024-03-23T17:47:27;4.30;;;1.90;;
3185;SDS011;1604;53.700;10.252;2024-03-23T17:50:30;5.80;;;2.80;;
3185;SDS011;1604;53.700;10.252;2024-03-23T17:53:36;5.53;;;3.17;;
3185;SDS011;1604;53.700;10.252;2024-03-23T17:56:38;7.33;;;4.50;;
3185;SDS011;1604;53.700;10.252;2024-03-23T17:59:40;7.03;;;3.70;;
3185;SDS011;1604;53.700;10.252;2024-03-23T18:02:41;5.77;;;2.10;;
3185;SDS011;1604;53.700;10.252;2024-03-23T18:05:44;5.80;;;2.17;;
3185;SDS011;1604;53.700;10.252;2024-03-23T18:08:46;2.80;;;1.50;;
3185;SDS011;1604;53.700;10.252;2024-03-23T18:11:47;1.93;;;1.67;;
3185;SDS011;1604;53.700;10.252;2024-03-23T18:14:49;6.50;;;2.60;;
3185;SDS011;1604;53.700;10.252;2024-03-23T18:17:52;7.93;;;4.80;;
3185;SDS011;1604;53.700;10.252;2024-03-23T18:20:54;8.13;;;3.53;;
3185;SDS011;1604;53.700;10.252;2024-03-23T18:23:56;7.23;;;3.40;;
3185;SDS011;1604;53.700;10.252;2024-03-23T18:26:57;12.13;;;5.90;;
3185;SDS011;1604;53.700;10.252;2024-03-23T18:29:59;7.40;;;3.90;;
3185;SDS011;1604;53.700;10.252;2024-03-23T18:32:59;6.23;;;4.53;;
3185;SDS011;1604;53.700;10.252;2024-03-23T18:36:03;7.13;;;3.27;;
3185;SDS011;1604;53.700;10.252;2024-03-23T18:39:04;4.63;;;3.60;;
3185;SDS011;1604;53.700;10.252;2024-03-23T18:42:07;12.33;;;4.73;;
3185;SDS011;1604;53.700;10.252;2024-03-23T18:45:09;5.03;;;3.40;;
3185;SDS011;1604;53.700;10.252;2024-03-23T18:48:10;6.30;;;3.77;;
3185;SDS011;1604;53.700;10.252;2024-03-23T18:51:13;9.43;;;3.13;;
3185;SDS011;1604;53.700;10.252;2024-03-23T18:54:15;12.00;;;3.50;;
3185;SDS011;1604;53.700;10.252;2024-03-23T18:57:17;10.23;;;3.50;;
3185;SDS011;1604;53.700;10.252;2024-03-23T19:00:18;7.20;;;3.50;;
3185;SDS011;1604;53.700;10.252;2024-03-23T19:03:20;9.23;;;3.63;;
3185;SDS011;1604;53.700;10.252;2024-03-23T19:06:23;6.07;;;3.47;;
3185;SDS011;1604;53.700;10.252;2024-03-23T19:09:26;6.67;;;3.33;;
3185;SDS011;1604;53.700;10.252;2024-03-23T19:12:28;8.40;;;3.80;;
3185;SDS011;1604;53.700;10.252;2024-03-23T19:15:29;10.37;;;2.97;;
3185;SDS011;1604;53.700;10.252;2024-03-23T19:18:31;10.83;;;3.80;;
3185;SDS011;1604;53.700;10.252;2024-03-23T19:21:34;5.60;;;3.10;;